createdAt,value
2018-03-06T00:00:39.802Z,72.00
2018-03-06T00:03:08.934Z,73.50
2018-03-06T00:05:38.673Z,71.50
2018-03-06T00:08:08.767Z,72.00
2018-03-06T00:10:38.047Z,69.20
2018-03-06T00:13:06.965Z,69.80
2018-03-06T00:15:36.065Z,84.13
2018-03-06T00:18:05.793Z,74.40
2018-03-06T00:20:35.031Z,68.03
2018-03-06T00:23:04.019Z,67.97
2018-03-06T00:25:32.990Z,68.13
2018-03-06T00:28:02.031Z,67.00
2018-03-06T00:30:31.759Z,67.37
2018-03-06T00:33:00.914Z,64.23
2018-03-06T00:35:31.177Z,69.03
2018-03-06T00:38:00.926Z,71.40
2018-03-06T00:40:29.835Z,68.93
2018-03-06T00:42:58.891Z,74.57
2018-03-06T00:45:28.773Z,71.70
2018-03-06T00:47:58.870Z,73.60
2018-03-06T00:50:27.780Z,72.10
2018-03-06T00:52:56.692Z,67.50
2018-03-06T00:55:26.388Z,71.60
2018-03-06T00:57:56.089Z,77.57
2018-03-06T01:00:25.019Z,70.37
2018-03-06T01:02:54.736Z,62.57
2018-03-06T01:05:23.627Z,51.60
2018-03-06T01:07:52.583Z,49.47
2018-03-06T01:10:21.546Z,53.77
2018-03-06T01:12:50.460Z,52.33
2018-03-06T01:15:19.426Z,34.23
2018-03-06T01:17:48.298Z,26.47
2018-03-06T01:20:17.254Z,28.43
2018-03-06T01:22:46.110Z,43.10
2018-03-06T01:25:15.097Z,30.27
2018-03-06T01:27:43.956Z,22.50
2018-03-06T01:30:13.927Z,22.60
2018-03-06T01:32:42.970Z,24.00
2018-03-06T01:35:11.882Z,26.80
2018-03-06T01:37:41.557Z,48.87
2018-03-06T01:40:10.489Z,27.17
2018-03-06T01:42:39.501Z,19.43
2018-03-06T01:45:08.450Z,17.70
2018-03-06T01:47:37.362Z,33.73
2018-03-06T01:50:06.624Z,10.77
2018-03-06T01:52:36.244Z,10.77
2018-03-06T01:55:05.400Z,10.63
2018-03-06T01:57:34.240Z,11.90
2018-03-06T02:00:03.356Z,11.53
2018-03-06T02:02:32.437Z,12.93
2018-03-06T02:05:01.779Z,10.97
2018-03-06T02:07:30.675Z,12.03
2018-03-06T02:09:59.691Z,13.87
2018-03-06T02:12:29.351Z,13.77
2018-03-06T02:14:58.294Z,13.63
2018-03-06T02:17:27.139Z,14.03
2018-03-06T02:19:56.068Z,15.17
2018-03-06T02:22:25.138Z,16.53
2018-03-06T02:24:54.167Z,18.30
2018-03-06T02:27:23.770Z,16.03
2018-03-06T02:29:53.851Z,13.77
2018-03-06T02:32:22.906Z,33.43
2018-03-06T02:34:52.756Z,14.63
2018-03-06T02:37:22.548Z,21.50
2018-03-06T02:39:51.645Z,49.70
2018-03-06T02:42:20.535Z,29.40
2018-03-06T02:44:49.421Z,17.40
2018-03-06T02:47:18.275Z,27.07
2018-03-06T02:49:47.261Z,67.87
2018-03-06T02:52:16.885Z,24.17
2018-03-06T02:54:46.758Z,22.87
2018-03-06T02:57:15.648Z,13.73
2018-03-06T02:59:44.651Z,22.63
2018-03-06T03:02:13.596Z,18.97
2018-03-06T03:04:43.273Z,27.17
2018-03-06T03:07:12.362Z,17.93
2018-03-06T03:09:41.546Z,22.80
2018-03-06T03:12:10.500Z,32.97
2018-03-06T03:14:39.562Z,22.40
2018-03-06T03:17:08.422Z,26.83
2018-03-06T03:19:37.477Z,14.30
2018-03-06T03:22:07.594Z,16.73
2018-03-06T03:24:36.518Z,46.10
2018-03-06T03:27:05.720Z,40.53
2018-03-06T03:29:35.770Z,39.10
2018-03-06T03:32:05.719Z,30.57
2018-03-06T03:34:34.712Z,18.70
2018-03-06T03:37:04.474Z,43.93
2018-03-06T03:39:34.124Z,20.07
2018-03-06T03:42:03.839Z,26.30
2018-03-06T03:44:32.766Z,13.57
2018-03-06T03:47:01.838Z,47.67
2018-03-06T03:49:30.718Z,35.53
2018-03-06T03:51:59.776Z,21.00
2018-03-06T03:54:28.665Z,13.27
2018-03-06T03:56:57.587Z,8.70
2018-03-06T03:59:26.482Z,10.40
2018-03-06T04:01:55.579Z,10.67
2018-03-06T04:04:24.606Z,30.20
2018-03-06T04:06:54.605Z,19.70
2018-03-06T04:09:24.366Z,26.43
2018-03-06T04:11:54.042Z,29.47
2018-03-06T04:14:23.007Z,19.60
2018-03-06T04:16:51.921Z,61.10
2018-03-06T04:19:20.851Z,40.27
2018-03-06T04:21:50.525Z,36.23
2018-03-06T04:24:20.351Z,20.07
2018-03-06T04:26:50.159Z,18.97
2018-03-06T04:29:19.105Z,48.30
2018-03-06T04:31:48.027Z,32.80
2018-03-06T04:34:18.198Z,16.57
2018-03-06T04:36:48.475Z,20.97
2018-03-06T04:39:17.612Z,13.60
2018-03-06T04:41:46.540Z,12.10
2018-03-06T04:44:16.019Z,11.23
2018-03-06T04:46:44.950Z,9.87
2018-03-06T04:49:13.814Z,10.47
2018-03-06T04:51:42.737Z,12.37
2018-03-06T04:54:11.671Z,9.00
2018-03-06T04:56:41.435Z,12.87
2018-03-06T04:59:10.531Z,17.80
2018-03-06T05:01:39.499Z,16.70
2018-03-06T05:04:08.499Z,17.07
2018-03-06T05:06:37.406Z,9.07
2018-03-06T05:09:06.362Z,9.73
2018-03-06T05:11:35.957Z,9.67
2018-03-06T05:14:05.643Z,9.90
2018-03-06T05:16:34.591Z,9.70
2018-03-06T05:19:03.595Z,11.57
2018-03-06T05:21:32.514Z,42.37
2018-03-06T05:24:01.419Z,34.50
2018-03-06T05:26:31.099Z,10.03
2018-03-06T05:29:00.087Z,14.93
2018-03-06T05:31:28.910Z,14.87
2018-03-06T05:33:58.147Z,22.27
2018-03-06T05:36:27.169Z,16.03
2018-03-06T05:38:56.284Z,18.53
2018-03-06T05:41:25.240Z,24.57
2018-03-06T05:43:54.119Z,19.13
2018-03-06T05:46:23.867Z,11.53
2018-03-06T05:48:52.928Z,16.77
2018-03-06T05:51:22.103Z,17.43
2018-03-06T05:53:52.075Z,25.83
2018-03-06T05:56:21.150Z,21.30
2018-03-06T05:58:50.340Z,22.17
2018-03-06T06:01:20.254Z,21.17
2018-03-06T06:03:49.316Z,23.27
2018-03-06T06:06:19.792Z,27.60
2018-03-06T06:08:48.731Z,17.23
2018-03-06T06:11:18.003Z,11.67
2018-03-06T06:13:46.958Z,11.07
2018-03-06T06:16:16.696Z,11.47
2018-03-06T06:18:45.563Z,23.73
2018-03-06T06:21:14.650Z,23.60
2018-03-06T06:23:43.939Z,13.83
2018-03-06T06:26:12.926Z,24.77
2018-03-06T06:28:41.874Z,25.17
2018-03-06T06:31:10.953Z,16.27
2018-03-06T06:33:39.874Z,18.53
2018-03-06T06:36:08.842Z,12.37
2018-03-06T06:38:37.838Z,12.13
2018-03-06T06:41:07.175Z,13.07
2018-03-06T06:43:35.972Z,19.80
2018-03-06T06:46:04.845Z,17.73
2018-03-06T06:48:33.828Z,12.53
2018-03-06T06:51:02.823Z,11.83
2018-03-06T06:53:32.582Z,14.33
2018-03-06T06:56:02.296Z,12.33
2018-03-06T06:58:31.288Z,13.83
2018-03-06T07:01:00.239Z,14.87
2018-03-06T07:03:29.139Z,14.90
2018-03-06T07:05:59.047Z,15.57
2018-03-06T07:08:28.006Z,13.20
2018-03-06T07:10:57.049Z,13.13
2018-03-06T07:13:25.949Z,13.33
2018-03-06T07:15:55.053Z,11.17
2018-03-06T07:18:24.182Z,10.77
2018-03-06T07:20:53.088Z,10.60
2018-03-06T07:23:22.014Z,11.90
2018-03-06T07:25:51.822Z,12.33
2018-03-06T07:28:20.817Z,14.97
2018-03-06T07:30:49.894Z,19.90
2018-03-06T07:33:18.708Z,14.77
2018-03-06T07:48:48.423Z,32.03
2018-03-06T07:51:18.132Z,22.10
2018-03-06T07:53:48.221Z,24.17
2018-03-06T07:56:17.592Z,23.40
2018-03-06T07:58:46.512Z,27.00
2018-03-06T08:01:16.261Z,29.07
2018-03-06T08:03:46.097Z,38.47
2018-03-06T08:06:15.038Z,44.70
2018-03-06T08:08:44.082Z,45.70
2018-03-06T08:11:13.019Z,37.70
2018-03-06T08:13:42.982Z,30.90
2018-03-06T08:16:11.926Z,27.90
2018-03-06T08:18:40.925Z,24.47
2018-03-06T08:21:10.895Z,16.03
2018-03-06T08:23:40.740Z,23.50
2018-03-06T08:26:09.665Z,28.83
2018-03-06T08:28:38.526Z,33.40
2018-03-06T08:31:07.515Z,33.40
2018-03-06T08:33:36.461Z,33.47
2018-03-06T08:36:05.430Z,23.90
2018-03-06T08:38:34.277Z,22.47
2018-03-06T08:41:03.233Z,21.87
2018-03-06T08:43:32.812Z,21.93
2018-03-06T08:46:02.573Z,22.73
2018-03-06T08:48:31.489Z,17.20
2018-03-06T08:51:00.372Z,14.67
2018-03-06T08:53:29.308Z,12.43
2018-03-06T08:55:58.466Z,16.47
2018-03-06T08:58:27.730Z,22.40
2018-03-06T09:00:57.315Z,19.27
2018-03-06T09:03:26.163Z,26.40
2018-03-06T09:05:55.024Z,27.53
2018-03-06T09:08:23.924Z,28.17
2018-03-06T09:10:52.827Z,28.20
2018-03-06T09:13:21.663Z,29.43
2018-03-06T09:15:51.528Z,19.57
2018-03-06T09:18:20.388Z,17.67
2018-03-06T09:20:50.332Z,18.63
2018-03-06T09:23:19.362Z,21.17
2018-03-06T09:25:48.393Z,28.23
2018-03-06T09:28:17.517Z,31.50
2018-03-06T09:30:46.410Z,33.00
2018-03-06T09:33:15.533Z,41.90
2018-03-06T09:35:44.395Z,37.83
2018-03-06T09:38:13.329Z,35.23
2018-03-06T09:40:42.212Z,27.53
2018-03-06T09:43:11.063Z,29.00
2018-03-06T09:45:40.148Z,27.53
2018-03-06T09:48:09.137Z,26.77
2018-03-06T09:50:37.981Z,21.60
2018-03-06T09:53:07.764Z,34.13
2018-03-06T09:55:36.643Z,38.67
2018-03-06T09:58:05.691Z,39.83
2018-03-06T10:00:35.480Z,51.43
2018-03-06T10:03:04.404Z,41.53
2018-03-06T10:05:33.436Z,72.57
2018-03-06T10:08:02.258Z,30.57
2018-03-06T10:10:31.355Z,26.83
2018-03-06T10:13:00.191Z,28.40
2018-03-06T10:15:29.867Z,30.27
2018-03-06T10:17:58.806Z,59.40
2018-03-06T10:20:27.764Z,38.57
2018-03-06T10:22:56.638Z,36.90
2018-03-06T10:25:25.633Z,34.97
2018-03-06T10:27:54.730Z,31.73
2018-03-06T10:30:24.487Z,32.37
2018-03-06T10:32:53.570Z,37.90
2018-03-06T10:35:22.732Z,25.77
2018-03-06T10:37:52.554Z,24.50
2018-03-06T10:40:22.218Z,27.50
2018-03-06T10:42:51.113Z,37.83
2018-03-06T10:45:20.089Z,41.90
2018-03-06T10:47:48.938Z,31.40
2018-03-06T10:50:18.621Z,28.00
2018-03-06T10:52:47.641Z,24.80
2018-03-06T10:55:17.674Z,26.17
2018-03-06T10:57:47.476Z,25.37
2018-03-06T11:00:16.479Z,22.80
2018-03-06T11:02:45.417Z,18.50
2018-03-06T11:05:14.237Z,18.87
2018-03-06T11:07:43.308Z,21.50
2018-03-06T11:10:12.196Z,19.50
2018-03-06T11:12:41.104Z,17.00
2018-03-06T11:15:09.980Z,16.87
2018-03-06T11:17:38.888Z,19.27
2018-03-06T11:20:08.010Z,18.83
2018-03-06T11:22:36.877Z,19.70
2018-03-06T11:25:05.696Z,27.53
2018-03-06T11:27:35.294Z,16.97
2018-03-06T11:30:04.913Z,21.83
2018-03-06T11:32:34.292Z,19.97
2018-03-06T11:35:03.192Z,19.90
2018-03-06T11:37:32.792Z,20.93
2018-03-06T11:40:01.680Z,18.73
2018-03-06T11:42:30.840Z,14.10
2018-03-06T11:44:59.709Z,15.23
2018-03-06T11:47:28.721Z,14.00
2018-03-06T11:49:57.601Z,15.50
2018-03-06T11:52:26.484Z,14.37
2018-03-06T11:54:55.683Z,14.90
2018-03-06T11:57:24.503Z,13.20
2018-03-06T11:59:54.151Z,12.17
2018-03-06T12:02:23.945Z,11.57
2018-03-06T12:04:53.584Z,10.90
2018-03-06T12:07:23.408Z,6.57
2018-03-06T12:09:53.092Z,6.73
2018-03-06T12:12:22.163Z,10.47
2018-03-06T12:14:51.008Z,5.70
2018-03-06T12:17:19.946Z,8.23
2018-03-06T12:19:50.066Z,6.23
2018-03-06T12:22:19.032Z,9.43
2018-03-06T12:24:47.953Z,7.30
2018-03-06T12:27:16.866Z,6.33
2018-03-06T12:29:45.759Z,5.70
2018-03-06T12:32:14.775Z,6.50
2018-03-06T12:34:43.970Z,8.63
2018-03-06T12:37:12.871Z,11.73
2018-03-06T12:39:41.738Z,8.87
2018-03-06T12:42:10.628Z,8.87
2018-03-06T12:44:39.793Z,7.23
2018-03-06T12:47:08.580Z,10.37
2018-03-06T12:49:37.423Z,7.83
2018-03-06T12:52:06.476Z,6.80
2018-03-06T12:54:36.076Z,7.50
2018-03-06T12:57:05.018Z,8.87
2018-03-06T12:59:33.987Z,9.00
2018-03-06T13:02:02.860Z,9.23
2018-03-06T13:04:32.475Z,15.50
2018-03-06T13:07:02.099Z,12.33
2018-03-06T13:09:31.634Z,13.23
2018-03-06T13:12:00.881Z,13.53
2018-03-06T13:14:30.600Z,9.30
2018-03-06T13:16:59.420Z,7.37
2018-03-06T13:19:28.779Z,9.37
2018-03-06T13:21:58.390Z,7.83
2018-03-06T13:24:28.043Z,11.17
2018-03-06T13:26:57.003Z,7.20
2018-03-06T13:29:25.797Z,7.87
2018-03-06T13:31:55.495Z,6.07
2018-03-06T13:34:24.927Z,7.63
2018-03-06T13:36:54.813Z,6.07
2018-03-06T13:39:23.647Z,7.03
2018-03-06T13:41:52.535Z,6.47
2018-03-06T13:44:22.526Z,6.87
2018-03-06T13:46:51.480Z,6.63
2018-03-06T13:49:20.395Z,6.67
2018-03-06T13:51:51.097Z,6.20
2018-03-06T13:54:20.159Z,7.53
2018-03-06T13:56:49.002Z,6.90
2018-03-06T13:59:18.003Z,8.40
2018-03-06T14:01:47.695Z,7.43
2018-03-06T14:04:18.052Z,6.90
2018-03-06T14:06:46.872Z,7.30
2018-03-06T14:09:15.832Z,7.63
2018-03-06T14:11:44.684Z,7.03
2018-03-06T14:14:13.527Z,7.40
2018-03-06T14:16:42.398Z,9.40
2018-03-06T14:19:11.273Z,33.27
2018-03-06T14:21:40.920Z,33.03
2018-03-06T14:24:10.000Z,21.83
2018-03-06T14:26:39.196Z,12.73
2018-03-06T14:29:08.045Z,14.53
2018-03-06T14:31:37.677Z,9.07
2018-03-06T14:34:07.368Z,28.57
2018-03-06T14:36:36.529Z,10.80
2018-03-06T14:39:05.455Z,12.90
2018-03-06T14:41:34.532Z,25.00
2018-03-06T14:44:03.512Z,23.30
2018-03-06T14:46:32.343Z,31.77
2018-03-06T14:49:01.640Z,26.50
2018-03-06T14:51:30.841Z,15.97
2018-03-06T14:54:00.603Z,18.53
2018-03-06T14:56:29.503Z,21.50
2018-03-06T14:58:58.443Z,32.63
2018-03-06T15:01:28.111Z,31.90
2018-03-06T15:03:57.024Z,26.33
2018-03-06T15:06:25.848Z,27.73
2018-03-06T15:08:54.789Z,11.10
2018-03-06T15:11:24.492Z,11.47
2018-03-06T15:13:53.437Z,29.03
2018-03-06T15:16:23.068Z,10.10
2018-03-06T15:18:51.927Z,12.70
2018-03-06T15:21:21.625Z,15.80
2018-03-06T15:23:51.237Z,16.67
2018-03-06T15:26:21.186Z,15.43
2018-03-06T15:28:51.097Z,24.67
2018-03-06T15:31:19.967Z,10.43
2018-03-06T15:33:48.812Z,7.77
2018-03-06T15:36:17.681Z,9.50
2018-03-06T15:38:46.524Z,15.30
2018-03-06T15:41:15.637Z,9.93
2018-03-06T15:43:44.505Z,10.10
2018-03-06T15:46:14.315Z,9.63
2018-03-06T15:48:43.152Z,9.10
2018-03-06T15:51:12.158Z,8.17
2018-03-06T15:53:41.036Z,6.70
2018-03-06T15:56:11.810Z,6.47
2018-03-06T15:58:41.792Z,6.30
2018-03-06T16:01:13.551Z,7.23
2018-03-06T16:03:43.095Z,7.70
2018-03-06T16:06:11.908Z,7.40
2018-03-06T16:08:41.088Z,8.70
2018-03-06T16:11:09.874Z,8.37
2018-03-06T16:13:38.865Z,8.37
2018-03-06T16:16:07.736Z,10.00
2018-03-06T16:18:37.696Z,13.80
2018-03-06T16:21:07.331Z,8.80
2018-03-06T16:23:36.251Z,8.20
2018-03-06T16:26:05.125Z,7.60
2018-03-06T16:28:34.141Z,8.00
2018-03-06T16:31:03.746Z,7.53
2018-03-06T16:33:33.389Z,9.63
2018-03-06T16:36:02.330Z,11.07
2018-03-06T16:38:31.477Z,10.93
2018-03-06T16:41:00.348Z,10.63
2018-03-06T16:43:29.586Z,11.03
2018-03-06T16:45:58.477Z,10.13
2018-03-06T16:48:28.584Z,14.90
2018-03-06T16:50:57.959Z,21.50
2018-03-06T16:53:27.142Z,13.13
2018-03-06T16:55:56.047Z,8.33
2018-03-06T16:58:25.882Z,8.73
2018-03-06T17:00:56.748Z,11.23
2018-03-06T17:03:26.768Z,14.20
2018-03-06T17:05:56.303Z,12.97
2018-03-06T17:08:25.162Z,12.60
2018-03-06T17:10:55.058Z,13.10
2018-03-06T17:13:24.686Z,11.63
2018-03-06T17:15:53.572Z,13.77
2018-03-06T17:18:22.920Z,13.60
2018-03-06T17:20:52.548Z,13.37
2018-03-06T17:23:22.508Z,13.50
2018-03-06T17:25:51.339Z,12.73
2018-03-06T17:28:20.330Z,13.20
2018-03-06T17:30:49.935Z,18.57
2018-03-06T17:33:18.829Z,17.70
2018-03-06T17:35:47.970Z,16.13
2018-03-06T17:38:17.336Z,17.30
2018-03-06T17:40:46.993Z,18.87
2018-03-06T17:43:16.348Z,19.07
2018-03-06T17:45:45.980Z,18.73
2018-03-06T17:48:14.765Z,17.57
2018-03-06T17:50:43.665Z,15.53
2018-03-06T17:53:12.589Z,12.87
2018-03-06T17:55:41.627Z,15.03
2018-03-06T17:58:11.548Z,14.80
2018-03-06T18:00:40.571Z,14.77
2018-03-06T18:03:09.464Z,16.07
2018-03-06T18:05:38.399Z,14.43
2018-03-06T18:08:07.306Z,14.13
2018-03-06T18:10:37.293Z,14.73
2018-03-06T18:13:07.273Z,14.60
2018-03-06T18:15:37.346Z,17.00
2018-03-06T18:18:06.513Z,17.23
2018-03-06T18:20:36.482Z,17.77
2018-03-06T18:23:06.842Z,17.47
2018-03-06T18:25:35.907Z,18.03
2018-03-06T18:28:05.016Z,13.03
2018-03-06T18:30:34.047Z,10.80
2018-03-06T18:33:03.132Z,16.00
2018-03-06T18:35:32.635Z,15.23
2018-03-06T18:38:01.988Z,13.67
2018-03-06T18:40:31.227Z,15.57
2018-03-06T18:43:00.614Z,16.97
2018-03-06T18:45:30.324Z,12.50
2018-03-06T18:47:59.751Z,13.67
2018-03-06T18:50:41.130Z,13.47
2018-03-06T18:53:10.471Z,12.70
2018-03-06T18:55:40.888Z,10.47
2018-03-06T18:58:10.111Z,11.50
2018-03-06T19:00:59.871Z,10.70
2018-03-06T19:03:40.842Z,9.53
2018-03-06T19:06:23.455Z,8.47
2018-03-06T19:08:52.880Z,6.90
2018-03-06T19:11:22.246Z,7.03
2018-03-06T19:13:51.470Z,6.83
2018-03-06T19:16:21.889Z,7.23
2018-03-06T19:18:51.649Z,6.50
2018-03-06T19:21:21.672Z,6.97
2018-03-06T19:23:51.041Z,6.80
2018-03-06T19:26:20.498Z,6.60
2018-03-06T19:28:49.750Z,7.37
2018-03-06T19:31:19.030Z,15.50
2018-03-06T19:33:48.274Z,8.67
2018-03-06T19:36:18.606Z,6.87
2018-03-06T19:38:49.628Z,7.10
2018-03-06T19:41:18.940Z,5.93
2018-03-06T19:43:48.987Z,5.97
2018-03-06T19:46:18.368Z,6.43
2018-03-06T19:48:47.770Z,5.87
2018-03-06T19:51:17.063Z,6.67
2018-03-06T19:53:46.487Z,6.40
2018-03-06T19:56:15.807Z,8.50
2018-03-06T19:58:45.241Z,11.90
2018-03-06T20:01:14.480Z,9.67
2018-03-06T20:03:43.748Z,7.20
2018-03-06T20:06:13.704Z,9.53
2018-03-06T20:08:43.033Z,12.73
2018-03-06T20:11:12.337Z,11.13
2018-03-06T20:13:41.853Z,6.33
2018-03-06T20:16:11.165Z,5.70
2018-03-06T20:18:40.677Z,6.13
2018-03-06T20:21:10.018Z,6.20
2018-03-06T20:23:39.342Z,5.10
2018-03-06T20:26:09.638Z,5.70
2018-03-06T20:28:39.163Z,5.00
2018-03-06T20:31:24.054Z,4.90
2018-03-06T20:33:53.309Z,4.60
2018-03-06T20:36:22.523Z,4.90
2018-03-06T20:38:57.509Z,5.50
2018-03-06T20:41:27.640Z,4.70
2018-03-06T20:43:57.146Z,4.70
2018-03-06T20:46:46.908Z,4.43
2018-03-06T20:49:17.237Z,5.70
2018-03-06T20:51:47.049Z,5.27
2018-03-06T20:54:22.581Z,6.23
2018-03-06T20:56:52.532Z,7.70
2018-03-06T20:59:22.733Z,8.47
2018-03-06T21:01:51.987Z,7.30
2018-03-06T21:04:21.066Z,11.10
2018-03-06T21:06:50.166Z,12.67
2018-03-06T21:09:19.042Z,8.10
2018-03-06T21:11:48.194Z,7.97
2018-03-06T21:14:17.042Z,8.03
2018-03-06T21:16:46.688Z,6.70
2018-03-06T21:19:15.613Z,7.57
2018-03-06T21:21:44.553Z,14.27
2018-03-06T21:24:13.465Z,18.00
2018-03-06T21:26:43.187Z,13.60
2018-03-06T21:29:12.109Z,14.67
2018-03-06T21:31:40.949Z,6.37
2018-03-06T21:34:10.085Z,9.03
2018-03-06T21:36:38.916Z,4.53
2018-03-06T21:39:07.759Z,5.10
2018-03-06T21:41:36.917Z,5.23
2018-03-06T21:44:05.849Z,4.93
2018-03-06T21:46:34.790Z,3.70
2018-03-06T21:49:03.643Z,5.80
2018-03-06T21:51:32.430Z,5.10
2018-03-06T21:54:02.108Z,6.77
2018-03-06T21:56:31.869Z,6.40
2018-03-06T21:59:00.862Z,7.70
2018-03-06T22:01:29.694Z,4.93
2018-03-06T22:03:58.628Z,6.40
2018-03-06T22:06:27.498Z,6.43
2018-03-06T22:08:56.556Z,5.67
2018-03-06T22:11:25.560Z,5.67
2018-03-06T22:13:54.476Z,4.70
2018-03-06T22:16:23.409Z,4.37
2018-03-06T22:18:52.222Z,7.97
2018-03-06T22:21:21.173Z,7.03
2018-03-06T22:23:51.003Z,4.40
2018-03-06T22:26:20.063Z,5.80
2018-03-06T22:28:49.128Z,4.77
2018-03-06T22:31:18.665Z,3.13
2018-03-06T22:33:47.526Z,4.23
2018-03-06T22:36:16.625Z,3.00
2018-03-06T22:38:45.662Z,3.90
2018-03-06T22:41:14.682Z,4.83
2018-03-06T22:43:45.620Z,5.80
2018-03-06T22:46:19.493Z,4.83
2018-03-06T22:48:48.550Z,5.37
2018-03-06T22:51:18.328Z,4.33
2018-03-06T22:53:48.042Z,4.77
2018-03-06T22:56:17.678Z,4.33
2018-03-06T22:58:47.349Z,4.10
2018-03-06T23:01:16.169Z,4.67
2018-03-06T23:03:45.089Z,4.23
2018-03-06T23:06:13.949Z,4.30
2018-03-06T23:08:43.081Z,3.10
2018-03-06T23:11:11.925Z,4.07
2018-03-06T23:13:41.621Z,5.57
2018-03-06T23:16:10.519Z,4.50
2018-03-06T23:18:40.096Z,4.00
2018-03-06T23:21:09.141Z,3.90
2018-03-06T23:23:39.258Z,3.87
2018-03-06T23:26:11.585Z,4.43
2018-03-06T23:28:40.973Z,3.57
2018-03-06T23:31:09.952Z,3.87
2018-03-06T23:33:42.749Z,3.60
2018-03-06T23:36:11.925Z,3.70
2018-03-06T23:38:40.804Z,6.20
2018-03-06T23:41:10.605Z,4.43
2018-03-06T23:43:40.217Z,2.93
2018-03-06T23:46:09.103Z,2.77
2018-03-06T23:48:38.719Z,3.00
2018-03-06T23:51:07.645Z,3.30
2018-03-06T23:53:36.802Z,3.90
2018-03-06T23:56:06.432Z,3.80
2018-03-06T23:58:35.274Z,3.90
